createdAt,value
2023-04-25T00:00:30.453Z,69.85
2023-04-25T00:02:33.776Z,70.04
2023-04-25T00:04:36.104Z,71.13
2023-04-25T00:06:38.264Z,71.81
2023-04-25T00:08:39.914Z,72.83
2023-04-25T00:10:41.708Z,72.87
2023-04-25T00:12:43.434Z,72.94
2023-04-25T00:14:46.512Z,73.01
2023-04-25T00:16:49.412Z,73.27
2023-04-25T00:18:54.780Z,72.87
2023-04-25T00:20:56.984Z,72.96
2023-04-25T00:22:58.665Z,72.55
2023-04-25T00:25:01.384Z,71.38
2023-04-25T00:27:03.000Z,71.28
2023-04-25T00:29:04.685Z,72.24
2023-04-25T00:31:06.287Z,72.02
2023-04-25T00:33:08.325Z,71.80
2023-04-25T00:35:10.764Z,72.41
2023-04-25T00:37:12.749Z,73.64
2023-04-25T00:39:14.391Z,74.05
2023-04-25T00:41:16.560Z,73.84
2023-04-25T00:43:18.151Z,74.67
2023-04-25T00:45:20.137Z,75.55
2023-04-25T00:47:21.985Z,76.65
2023-04-25T00:49:23.599Z,76.41
2023-04-25T00:51:26.131Z,75.97
2023-04-25T00:53:29.206Z,75.86
2023-04-25T00:55:32.532Z,76.54
2023-04-25T00:57:34.581Z,77.01
2023-04-25T00:59:37.559Z,78.24
2023-04-25T01:01:40.175Z,79.36
2023-04-25T01:03:42.241Z,80.58
2023-04-25T01:05:44.466Z,81.05
2023-04-25T01:07:46.512Z,81.75
2023-04-25T01:09:48.244Z,82.28
2023-04-25T01:11:50.515Z,81.95
2023-04-25T01:13:52.426Z,81.99
2023-04-25T01:15:54.307Z,81.46
2023-04-25T01:17:56.506Z,81.21
2023-04-25T01:19:58.260Z,80.80
2023-04-25T01:21:59.983Z,79.18
2023-04-25T01:24:01.971Z,78.99
2023-04-25T01:26:03.873Z,79.85
2023-04-25T01:28:05.701Z,80.23
2023-04-25T01:30:08.114Z,79.94
2023-04-25T01:32:10.154Z,80.48
2023-04-25T01:34:12.648Z,81.17
2023-04-25T01:36:14.581Z,80.76
2023-04-25T01:38:16.209Z,79.38
2023-04-25T01:40:19.805Z,79.34
2023-04-25T01:42:21.416Z,79.02
2023-04-25T01:44:23.066Z,78.67
2023-04-25T01:46:24.902Z,78.15
2023-04-25T01:48:26.638Z,77.81
2023-04-25T01:50:28.231Z,77.52
2023-04-25T01:52:29.863Z,77.01
2023-04-25T01:54:31.547Z,77.13
2023-04-25T01:56:34.156Z,76.97
2023-04-25T01:58:35.892Z,77.10
2023-04-25T02:00:41.927Z,76.91
2023-04-25T02:02:43.698Z,76.55
2023-04-25T02:04:45.612Z,76.61
2023-04-25T02:06:47.671Z,76.08
2023-04-25T02:08:49.378Z,76.11
2023-04-25T02:10:51.039Z,76.19
2023-04-25T02:12:52.566Z,76.37
2023-04-25T02:14:54.301Z,75.95
2023-04-25T02:16:56.070Z,75.51
2023-04-25T02:18:57.753Z,75.46
2023-04-25T02:21:00.491Z,74.66
2023-04-25T02:23:02.134Z,74.91
2023-04-25T02:25:05.668Z,75.44
2023-04-25T02:27:07.315Z,75.47
2023-04-25T02:29:08.935Z,75.27
2023-04-25T02:31:10.605Z,75.02
2023-04-25T02:33:12.253Z,75.65
2023-04-25T02:35:14.067Z,75.39
2023-04-25T02:37:15.739Z,75.54
2023-04-25T02:39:17.972Z,75.13
2023-04-25T02:41:19.577Z,75.07
2023-04-25T02:43:21.779Z,74.71
2023-04-25T02:45:23.493Z,74.91
2023-04-25T02:47:25.455Z,75.23
2023-04-25T02:49:27.115Z,75.12
2023-04-25T02:51:28.745Z,75.21
2023-04-25T02:53:30.386Z,74.65
2023-04-25T02:55:32.014Z,74.71
2023-04-25T02:57:33.662Z,74.19
2023-04-25T02:59:35.493Z,74.18
2023-04-25T03:01:37.094Z,74.65
2023-04-25T03:03:38.796Z,74.73
2023-04-25T03:05:40.404Z,74.97
2023-04-25T03:07:42.101Z,75.76
2023-04-25T03:09:43.722Z,75.96
2023-04-25T03:11:45.699Z,75.89
2023-04-25T03:13:47.371Z,75.73
2023-04-25T03:15:48.948Z,75.64
2023-04-25T03:17:50.626Z,75.60
2023-04-25T03:19:52.227Z,76.02
2023-04-25T03:21:54.735Z,76.24
2023-04-25T03:23:56.300Z,76.04
2023-04-25T03:25:57.901Z,76.35
2023-04-25T03:27:59.517Z,76.10
2023-04-25T03:30:01.120Z,76.19
2023-04-25T03:32:02.830Z,76.05
2023-04-25T03:34:04.554Z,75.89
2023-04-25T03:36:06.652Z,76.26
2023-04-25T03:38:08.229Z,77.88
2023-04-25T03:40:10.204Z,78.17
2023-04-25T03:42:11.916Z,78.17
2023-04-25T03:44:13.544Z,78.18
2023-04-25T03:46:15.272Z,78.11
2023-04-25T03:48:17.354Z,77.43
2023-04-25T03:50:19.078Z,77.74
2023-04-25T03:52:20.882Z,77.60
2023-04-25T03:54:22.471Z,77.42
2023-04-25T03:56:24.066Z,76.89
2023-04-25T03:58:25.790Z,76.77
2023-04-25T04:00:27.419Z,75.89
2023-04-25T04:02:29.173Z,74.81
2023-04-25T04:04:31.509Z,74.08
2023-04-25T04:06:34.190Z,75.38
2023-04-25T04:08:36.268Z,76.53
2023-04-25T04:10:37.831Z,76.66
2023-04-25T04:12:39.837Z,76.87
2023-04-25T04:14:41.512Z,77.95
2023-04-25T04:16:43.138Z,79.09
2023-04-25T04:18:44.794Z,78.75
2023-04-25T04:20:46.416Z,78.68
2023-04-25T04:22:48.014Z,78.69
2023-04-25T04:24:51.055Z,78.08
2023-04-25T04:26:53.159Z,77.36
2023-04-25T04:28:55.433Z,76.19
2023-04-25T04:30:57.096Z,76.11
2023-04-25T04:32:59.095Z,75.75
2023-04-25T04:35:00.731Z,75.34
2023-04-25T04:37:02.579Z,75.25
2023-04-25T04:39:06.598Z,74.97
2023-04-25T04:41:08.493Z,75.28
2023-04-25T04:43:11.753Z,75.09
2023-04-25T04:45:14.029Z,75.25
2023-04-25T04:47:15.603Z,77.54
2023-04-25T04:49:17.252Z,78.80
2023-04-25T04:51:18.865Z,79.44
2023-04-25T04:53:20.521Z,78.48
2023-04-25T04:55:22.082Z,78.34
2023-04-25T04:57:23.629Z,79.43
2023-04-25T04:59:25.320Z,79.73
2023-04-25T05:01:27.547Z,79.50
2023-04-25T05:03:29.640Z,79.77
2023-04-25T05:05:31.392Z,79.90
2023-04-25T05:07:33.056Z,79.48
2023-04-25T05:09:34.642Z,78.68
2023-04-25T05:11:36.309Z,78.29
2023-04-25T05:13:38.181Z,77.77
2023-04-25T05:15:39.786Z,77.32
2023-04-25T05:17:41.441Z,76.63
2023-04-25T05:19:43.096Z,76.44
2023-04-25T05:21:44.796Z,76.16
2023-04-25T05:23:46.402Z,76.10
2023-04-25T05:25:48.021Z,76.86
2023-04-25T05:27:49.701Z,78.31
2023-04-25T05:29:51.334Z,79.34
2023-04-25T05:31:52.949Z,79.45
2023-04-25T05:33:54.614Z,79.46
2023-04-25T05:35:56.183Z,79.32
2023-04-25T05:37:57.794Z,78.18
2023-04-25T05:39:59.428Z,77.17
2023-04-25T05:42:02.504Z,76.33
2023-04-25T05:44:04.171Z,75.62
2023-04-25T05:46:05.938Z,75.62
2023-04-25T05:48:07.701Z,75.24
2023-04-25T05:50:09.859Z,74.55
2023-04-25T05:52:11.534Z,73.75
2023-04-25T05:54:13.191Z,73.92
2023-04-25T05:56:14.877Z,74.38
2023-04-25T05:58:16.616Z,73.68
2023-04-25T06:00:19.858Z,74.47
2023-04-25T06:02:22.641Z,74.67
2023-04-25T06:04:25.212Z,75.14
2023-04-25T06:06:27.908Z,74.96
2023-04-25T06:08:29.493Z,73.96
2023-04-25T06:10:31.156Z,73.75
2023-04-25T06:12:34.109Z,73.60
2023-04-25T06:14:36.016Z,73.33
2023-04-25T06:16:37.710Z,73.02
2023-04-25T06:18:39.322Z,72.48
2023-04-25T06:20:41.000Z,72.46
2023-04-25T06:22:42.749Z,73.08
2023-04-25T06:24:44.317Z,73.65
2023-04-25T06:26:45.970Z,73.45
2023-04-25T06:28:47.609Z,73.18
2023-04-25T06:30:49.479Z,72.52
2023-04-25T06:32:51.150Z,72.33
2023-04-25T06:34:52.764Z,71.96
2023-04-25T06:36:54.425Z,71.64
2023-04-25T06:38:56.177Z,70.83
2023-04-25T06:40:57.918Z,70.96
2023-04-25T06:42:59.630Z,72.00
2023-04-25T06:45:01.416Z,71.92
2023-04-25T06:47:03.114Z,71.26
2023-04-25T06:49:04.773Z,71.62
2023-04-25T06:51:06.430Z,71.00
2023-04-25T06:53:09.729Z,70.40
2023-04-25T06:55:11.416Z,70.64
2023-04-25T06:57:13.095Z,70.08
2023-04-25T06:59:14.671Z,69.46
2023-04-25T07:01:16.653Z,69.06
2023-04-25T07:03:18.685Z,68.71
2023-04-25T07:05:20.442Z,68.86
2023-04-25T07:07:22.063Z,69.66
2023-04-25T07:09:23.773Z,68.47
2023-04-25T07:11:25.549Z,68.37
2023-04-25T07:13:27.175Z,69.05
2023-04-25T07:15:28.789Z,69.37
2023-04-25T07:17:30.439Z,68.83
2023-04-25T07:19:32.088Z,68.58
2023-04-25T07:21:33.940Z,69.12
2023-04-25T07:23:35.679Z,68.64
2023-04-25T07:25:37.483Z,67.95
2023-04-25T07:27:40.127Z,67.66
2023-04-25T07:29:41.778Z,68.45
2023-04-25T07:31:43.487Z,68.48
2023-04-25T07:33:48.896Z,67.60
2023-04-25T07:35:51.205Z,67.75
2023-04-25T07:37:52.895Z,68.15
2023-04-25T07:39:54.553Z,67.41
2023-04-25T07:41:56.176Z,67.28
2023-04-25T07:43:57.785Z,67.66
2023-04-25T07:45:59.516Z,67.06
2023-04-25T07:48:01.382Z,66.90
2023-04-25T07:50:04.587Z,66.37
2023-04-25T07:52:07.265Z,65.81
2023-04-25T07:54:09.442Z,64.43
2023-04-25T07:56:11.164Z,64.20
2023-04-25T07:58:12.856Z,63.91
2023-04-25T08:00:16.063Z,64.07
2023-04-25T08:02:17.754Z,63.11
2023-04-25T08:04:19.815Z,63.00
2023-04-25T08:06:21.754Z,62.38
2023-04-25T08:08:23.508Z,62.59
2023-04-25T08:10:25.119Z,63.03
2023-04-25T08:12:26.892Z,61.10
2023-04-25T08:14:30.032Z,61.08
2023-04-25T08:16:32.108Z,61.68
2023-04-25T08:18:33.810Z,61.48
2023-04-25T08:20:35.517Z,60.17
2023-04-25T08:22:37.150Z,57.83
2023-04-25T08:24:39.671Z,57.98
2023-04-25T08:26:42.313Z,58.10
2023-04-25T08:28:43.912Z,58.59
2023-04-25T08:30:45.641Z,57.35
2023-04-25T08:32:47.328Z,58.28
2023-04-25T08:34:48.989Z,59.35
2023-04-25T08:36:51.764Z,60.42
2023-04-25T08:38:55.306Z,59.92
2023-04-25T08:40:57.969Z,59.94
2023-04-25T08:43:00.035Z,60.26
2023-04-25T08:45:06.637Z,60.35
2023-04-25T08:47:08.925Z,60.60
2023-04-25T08:49:10.715Z,62.18
2023-04-25T08:51:23.659Z,62.45
2023-04-25T08:53:30.926Z,63.80
2023-04-25T08:55:32.996Z,63.66
2023-04-25T08:57:34.789Z,62.11
2023-04-25T08:59:39.246Z,61.33
2023-04-25T09:01:41.350Z,58.74
2023-04-25T09:03:43.283Z,59.62
2023-04-25T09:05:45.390Z,59.32
2023-04-25T09:07:48.472Z,59.39
2023-04-25T09:09:51.485Z,58.78
2023-04-25T09:11:55.451Z,58.11
2023-04-25T09:14:13.914Z,56.99
2023-04-25T09:16:18.543Z,58.11
2023-04-25T09:18:31.430Z,58.71
2023-04-25T09:20:35.303Z,58.78
2023-04-25T09:22:39.815Z,59.23
2023-04-25T09:24:46.913Z,59.89
2023-04-25T09:26:48.881Z,59.81
2023-04-25T09:28:50.497Z,59.85
2023-04-25T09:30:56.187Z,59.24
2023-04-25T09:32:59.287Z,59.65
2023-04-25T09:35:01.108Z,58.77
2023-04-25T09:37:03.111Z,57.56
2023-04-25T09:39:16.126Z,57.57
2023-04-25T09:41:24.242Z,57.04
2023-04-25T09:43:26.544Z,56.04
2023-04-25T09:45:32.301Z,50.76
2023-04-25T09:47:38.975Z,48.94
2023-04-25T09:49:44.710Z,45.89
2023-04-25T09:51:58.281Z,44.67
2023-04-25T09:53:59.894Z,43.49
2023-04-25T09:56:01.742Z,43.87
2023-04-25T09:58:08.782Z,43.03
2023-04-25T10:00:13.794Z,49.88
2023-04-25T10:02:21.507Z,51.67
2023-04-25T10:04:27.324Z,54.54
2023-04-25T10:06:29.997Z,55.51
2023-04-25T10:08:37.258Z,56.29
2023-04-25T10:10:41.413Z,54.82
2023-04-25T10:12:44.559Z,54.52
2023-04-25T10:14:47.001Z,53.15
2023-04-25T10:16:49.406Z,54.06
2023-04-25T10:18:51.647Z,52.86
2023-04-25T10:20:57.778Z,53.73
2023-04-25T10:23:06.346Z,54.42
2023-04-25T10:25:09.415Z,53.42
2023-04-25T10:27:12.099Z,52.36
2023-04-25T10:29:13.645Z,51.59
2023-04-25T10:31:17.628Z,50.62
2023-04-25T10:33:21.988Z,51.29
2023-04-25T10:35:28.625Z,50.28
2023-04-25T10:37:31.438Z,47.87
2023-04-25T10:39:33.833Z,47.08
2023-04-25T10:41:49.348Z,51.88
2023-04-25T10:43:51.858Z,54.22
2023-04-25T10:45:54.158Z,54.62
2023-04-25T10:47:55.979Z,55.68
2023-04-25T10:50:06.206Z,56.20
2023-04-25T10:52:26.820Z,56.93
2023-04-25T10:54:28.456Z,57.50
2023-04-25T10:56:42.896Z,52.64
2023-04-25T10:58:49.461Z,49.48
2023-04-25T11:00:57.459Z,46.50
2023-04-25T11:03:00.701Z,47.14
2023-04-25T11:05:02.499Z,46.55
2023-04-25T11:07:07.951Z,48.08
2023-04-25T11:09:14.335Z,48.29
2023-04-25T11:11:17.364Z,48.32
2023-04-25T11:13:21.664Z,47.98
2023-04-25T11:15:23.288Z,48.15
2023-04-25T11:17:26.538Z,48.59
2023-04-25T11:19:29.291Z,48.64
2023-04-25T11:21:32.940Z,49.12
2023-04-25T11:23:34.609Z,49.79
2023-04-25T11:25:38.512Z,50.20
2023-04-25T11:27:52.361Z,51.30
2023-04-25T11:29:53.982Z,51.18
2023-04-25T11:31:59.498Z,50.96
2023-04-25T11:34:01.395Z,51.10
2023-04-25T11:36:03.107Z,51.87
2023-04-25T11:38:05.280Z,51.86
2023-04-25T11:40:07.894Z,52.32
2023-04-25T11:42:11.148Z,52.78
2023-04-25T11:44:19.470Z,53.33
2023-04-25T11:46:21.474Z,53.97
2023-04-25T11:48:25.957Z,54.68
2023-04-25T11:50:29.282Z,55.79
2023-04-25T11:52:41.303Z,56.29
2023-04-25T11:54:45.751Z,56.63
2023-04-25T11:56:47.445Z,55.69
2023-04-25T11:58:56.650Z,56.02
2023-04-25T12:01:00.492Z,56.50
2023-04-25T12:03:03.999Z,54.95
2023-04-25T12:05:22.156Z,54.24
2023-04-25T12:07:31.584Z,53.48
2023-04-25T12:09:34.372Z,52.71
2023-04-25T12:12:11.271Z,53.02
2023-04-25T12:14:14.000Z,54.20
2023-04-25T12:16:16.087Z,53.73
2023-04-25T12:18:22.711Z,52.44
2023-04-25T12:20:27.545Z,53.19
2023-04-25T12:22:29.539Z,52.89
2023-04-25T12:24:36.930Z,53.37
2023-04-25T12:27:09.348Z,53.19
2023-04-25T12:29:26.068Z,53.04
2023-04-25T12:31:30.187Z,55.10
2023-04-25T12:33:33.090Z,59.37
2023-04-25T12:35:34.703Z,63.32
2023-04-25T12:37:36.409Z,65.03
2023-04-25T12:39:38.146Z,65.46
2023-04-25T12:41:39.719Z,66.27
2023-04-25T12:43:41.350Z,68.20
2023-04-25T12:45:42.923Z,67.61
2023-04-25T12:47:44.816Z,68.49
2023-04-25T12:49:46.549Z,67.85
2023-04-25T12:51:48.622Z,69.31
2023-04-25T12:53:50.417Z,69.78
2023-04-25T12:55:52.402Z,70.60
2023-04-25T12:57:54.008Z,69.64
2023-04-25T12:59:55.627Z,70.34
2023-04-25T13:01:57.239Z,69.35
2023-04-25T13:03:59.017Z,68.60
2023-04-25T13:06:00.719Z,68.25
2023-04-25T13:08:02.387Z,67.97
2023-04-25T13:10:04.224Z,68.17
2023-04-25T13:12:06.184Z,68.03
2023-04-25T13:14:07.729Z,68.94
2023-04-25T13:16:10.224Z,69.11
2023-04-25T13:18:12.082Z,69.09
2023-04-25T13:20:14.803Z,69.25
2023-04-25T13:22:17.942Z,68.74
2023-04-25T13:24:19.683Z,69.19
2023-04-25T13:26:21.382Z,68.90
2023-04-25T13:28:23.310Z,69.46
2023-04-25T13:30:25.110Z,69.91
2023-04-25T13:32:26.861Z,70.84
2023-04-25T13:34:30.150Z,70.61
2023-04-25T13:36:32.964Z,70.51
2023-04-25T13:38:34.571Z,70.85
2023-04-25T13:40:36.418Z,71.04
2023-04-25T13:42:39.033Z,70.74
2023-04-25T13:44:40.861Z,71.16
2023-04-25T13:46:46.908Z,71.06
2023-04-25T13:48:52.744Z,70.88
2023-04-25T13:50:55.822Z,70.22
2023-04-25T13:52:57.341Z,70.34
2023-04-25T13:54:59.294Z,70.11
2023-04-25T13:57:01.116Z,69.50
2023-04-25T13:59:02.761Z,69.88
2023-04-25T14:01:04.589Z,69.34
2023-04-25T14:03:08.977Z,67.47
2023-04-25T14:05:11.193Z,66.74
2023-04-25T14:07:12.950Z,64.89
2023-04-25T14:09:14.589Z,64.59
2023-04-25T14:11:16.225Z,64.46
2023-04-25T14:13:17.844Z,62.51
2023-04-25T14:15:19.493Z,62.47
2023-04-25T14:17:21.282Z,62.11
2023-04-25T14:19:23.501Z,61.26
2023-04-25T14:21:25.232Z,60.60
2023-04-25T14:23:26.865Z,61.07
2023-04-25T14:25:28.820Z,59.97
2023-04-25T14:27:30.417Z,60.31
2023-04-25T14:29:32.613Z,60.17
2023-04-25T14:31:34.808Z,60.57
2023-04-25T14:33:36.569Z,60.08
2023-04-25T14:35:38.652Z,58.59
2023-04-25T14:37:40.525Z,57.53
2023-04-25T14:39:42.135Z,59.22
2023-04-25T14:41:43.841Z,60.20
2023-04-25T14:43:46.179Z,61.31
2023-04-25T14:45:47.788Z,60.26
2023-04-25T14:47:49.676Z,60.11
2023-04-25T14:49:55.163Z,59.52
2023-04-25T14:51:56.996Z,59.68
2023-04-25T14:53:59.141Z,60.33
2023-04-25T14:56:00.789Z,61.94
2023-04-25T14:58:03.057Z,62.11
2023-04-25T15:00:08.056Z,63.08
2023-04-25T15:02:09.764Z,63.87
2023-04-25T15:04:13.626Z,63.36
2023-04-25T15:06:15.501Z,64.06
2023-04-25T15:08:17.160Z,63.94
2023-04-25T15:10:19.742Z,64.26
2023-04-25T15:12:21.595Z,65.12
2023-04-25T15:14:23.226Z,65.69
2023-04-25T15:16:24.838Z,64.26
2023-04-25T15:18:26.658Z,63.25
2023-04-25T15:20:28.669Z,63.25
2023-04-25T15:22:30.368Z,63.73
2023-04-25T15:24:32.067Z,62.50
2023-04-25T15:26:33.698Z,64.10
2023-04-25T15:28:35.282Z,62.45
2023-04-25T15:30:36.883Z,62.85
2023-04-25T15:32:38.762Z,65.29
2023-04-25T15:34:40.438Z,65.37
2023-04-25T15:36:42.001Z,65.33
2023-04-25T15:38:43.627Z,64.71
2023-04-25T15:40:45.269Z,64.90
2023-04-25T15:42:55.247Z,65.13
2023-04-25T15:44:56.870Z,64.51
2023-04-25T15:46:58.460Z,64.61
2023-04-25T15:49:00.152Z,64.69
2023-04-25T15:51:02.043Z,63.02
2023-04-25T15:53:05.041Z,61.80
2023-04-25T15:55:08.840Z,61.65
2023-04-25T15:57:13.097Z,61.18
2023-04-25T15:59:14.757Z,60.44
2023-04-25T16:01:16.610Z,60.55
2023-04-25T16:03:18.421Z,59.93
2023-04-25T16:05:20.596Z,61.06
2023-04-25T16:07:23.133Z,61.76
2023-04-25T16:09:24.832Z,66.28
2023-04-25T16:11:26.601Z,68.79
2023-04-25T16:13:29.983Z,70.33
2023-04-25T16:15:34.586Z,71.13
2023-04-25T16:17:36.976Z,71.10
2023-04-25T16:19:38.856Z,69.61
2023-04-25T16:21:40.398Z,68.56
2023-04-25T16:23:42.425Z,67.43
2023-04-25T16:25:44.581Z,66.59
2023-04-25T16:27:46.319Z,66.28
2023-04-25T16:29:49.674Z,65.74
2023-04-25T16:31:51.417Z,65.73
2023-04-25T16:33:53.342Z,66.27
2023-04-25T16:35:55.198Z,67.51
2023-04-25T16:37:57.426Z,69.57
2023-04-25T16:39:59.029Z,70.58
2023-04-25T16:42:01.512Z,72.36
2023-04-25T16:44:07.052Z,73.60
2023-04-25T16:46:08.714Z,75.20
2023-04-25T16:48:10.383Z,75.79
2023-04-25T16:50:14.528Z,76.62
2023-04-25T16:52:16.401Z,77.11
2023-04-25T16:54:18.361Z,77.65
2023-04-25T16:56:20.085Z,78.65
2023-04-25T16:58:22.012Z,78.50
2023-04-25T17:00:23.909Z,78.57
2023-04-25T17:02:25.680Z,77.63
2023-04-25T17:04:27.669Z,76.32
2023-04-25T17:06:29.873Z,75.16
2023-04-25T17:08:31.483Z,75.46
2023-04-25T17:10:33.956Z,74.37
2023-04-25T17:12:35.829Z,74.07
2023-04-25T17:14:37.453Z,72.73
2023-04-25T17:16:39.702Z,71.81
2023-04-25T17:18:41.827Z,70.22
2023-04-25T17:20:43.488Z,70.41
2023-04-25T17:22:45.156Z,70.64
2023-04-25T17:24:46.732Z,71.33
2023-04-25T17:26:48.977Z,71.51
2023-04-25T17:28:51.227Z,71.50
2023-04-25T17:30:53.139Z,71.24
2023-04-25T17:32:54.823Z,71.71
2023-04-25T17:34:57.355Z,71.39
2023-04-25T17:36:59.043Z,71.14
2023-04-25T17:39:00.713Z,70.64
2023-04-25T17:41:02.746Z,70.29
2023-04-25T17:43:04.365Z,69.97
2023-04-25T17:45:07.850Z,68.60
2023-04-25T17:47:12.525Z,68.55
2023-04-25T17:49:14.166Z,69.08
2023-04-25T17:51:15.939Z,69.43
2023-04-25T17:53:18.049Z,69.82
2023-04-25T17:55:19.675Z,70.58
2023-04-25T17:57:22.808Z,71.20
2023-04-25T17:59:24.466Z,70.79
2023-04-25T18:01:26.158Z,70.19
2023-04-25T18:03:27.867Z,69.74
2023-04-25T18:05:31.169Z,69.90
2023-04-25T18:07:32.954Z,69.94
2023-04-25T18:09:34.908Z,69.93
2023-04-25T18:11:36.689Z,69.90
2023-04-25T18:13:38.722Z,70.86
2023-04-25T18:15:40.745Z,72.88
2023-04-25T18:17:42.702Z,72.76
2023-04-25T18:19:44.269Z,72.64
2023-04-25T18:21:45.984Z,72.38
2023-04-25T18:23:47.952Z,72.48
2023-04-25T18:25:52.051Z,71.87
2023-04-25T18:27:53.651Z,70.77
2023-04-25T18:29:55.263Z,69.43
2023-04-25T18:31:56.987Z,68.58
2023-04-25T18:33:58.798Z,68.19
2023-04-25T18:36:00.352Z,67.87
2023-04-25T18:38:02.547Z,68.20
2023-04-25T18:40:06.681Z,67.85
2023-04-25T18:42:08.622Z,67.95
2023-04-25T18:44:10.294Z,67.55
2023-04-25T18:46:12.093Z,67.26
2023-04-25T18:48:13.776Z,66.83
2023-04-25T18:50:15.924Z,66.93
2023-04-25T18:52:17.872Z,66.98
2023-04-25T18:54:19.464Z,66.80
2023-04-25T18:56:22.903Z,67.00
2023-04-25T18:58:24.553Z,67.31
2023-04-25T19:00:26.313Z,67.86
2023-04-25T19:02:28.087Z,68.28
2023-04-25T19:04:29.999Z,68.88
2023-04-25T19:06:32.791Z,68.71
2023-04-25T19:08:34.379Z,68.79
2023-04-25T19:10:36.783Z,69.07
2023-04-25T19:12:38.443Z,68.23
2023-04-25T19:14:40.555Z,68.45
2023-04-25T19:16:42.279Z,68.09
2023-04-25T19:18:44.651Z,67.72
2023-04-25T19:20:46.590Z,67.22
2023-04-25T19:22:48.533Z,67.39
2023-04-25T19:24:55.760Z,67.35
2023-04-25T19:27:10.599Z,66.69
2023-04-25T19:29:14.738Z,67.54
2023-04-25T19:31:16.806Z,69.42
2023-04-25T19:33:18.985Z,69.70
2023-04-25T19:35:20.590Z,69.87
2023-04-25T19:37:22.268Z,70.30
2023-04-25T19:39:23.931Z,71.36
2023-04-25T19:41:26.014Z,71.19
2023-04-25T19:43:27.714Z,70.97
2023-04-25T19:45:31.058Z,70.94
2023-04-25T19:47:33.106Z,70.56
2023-04-25T19:49:34.782Z,70.37
2023-04-25T19:51:37.244Z,69.96
2023-04-25T19:53:39.070Z,69.24
2023-04-25T19:55:41.301Z,68.87
2023-04-25T19:57:42.994Z,67.90
2023-04-25T19:59:48.114Z,67.98
2023-04-25T20:01:49.823Z,67.57
2023-04-25T20:03:51.878Z,67.14
2023-04-25T20:05:53.850Z,66.71
2023-04-25T20:07:55.499Z,65.87
2023-04-25T20:09:57.442Z,65.74
2023-04-25T20:11:59.029Z,65.31
2023-04-25T20:14:00.704Z,64.99
2023-04-25T20:16:02.891Z,65.49
2023-04-25T20:18:04.750Z,65.06
2023-04-25T20:20:06.931Z,65.17
2023-04-25T20:22:08.578Z,64.69
2023-04-25T20:24:11.464Z,65.20
2023-04-25T20:26:13.106Z,66.14
2023-04-25T20:28:14.725Z,66.44
2023-04-25T20:30:16.422Z,66.66
2023-04-25T20:32:18.016Z,67.00
2023-04-25T20:34:21.615Z,66.98
2023-04-25T20:36:23.195Z,66.13
2023-04-25T20:38:24.827Z,65.71
2023-04-25T20:40:26.812Z,65.49
2023-04-25T20:42:28.692Z,65.30
2023-04-25T20:44:30.544Z,65.08
2023-04-25T20:46:32.211Z,64.50
2023-04-25T20:48:33.808Z,63.85
2023-04-25T20:50:35.479Z,64.13
2023-04-25T20:52:38.686Z,63.55
2023-04-25T20:54:41.678Z,63.62
2023-04-25T20:56:43.397Z,63.59
2023-04-25T20:58:45.017Z,63.51
2023-04-25T21:00:47.699Z,64.38
2023-04-25T21:02:49.497Z,64.37
2023-04-25T21:04:51.901Z,64.42
2023-04-25T21:06:53.598Z,64.81
2023-04-25T21:08:55.173Z,64.68
2023-04-25T21:10:56.783Z,64.88
2023-04-25T21:12:58.469Z,65.29
2023-04-25T21:15:00.697Z,65.31
2023-04-25T21:17:02.384Z,65.68
2023-04-25T21:19:04.061Z,65.84
2023-04-25T21:21:06.370Z,66.04
2023-04-25T21:23:08.013Z,66.08
2023-04-25T21:25:10.372Z,66.24
2023-04-25T21:27:11.970Z,66.05
2023-04-25T21:29:13.519Z,65.97
2023-04-25T21:31:15.515Z,66.08
2023-04-25T21:33:17.187Z,66.12
2023-04-25T21:35:20.125Z,65.83
2023-04-25T21:37:21.797Z,65.12
2023-04-25T21:39:25.159Z,65.58
2023-04-25T21:41:26.823Z,65.31
2023-04-25T21:43:28.793Z,65.26
2023-04-25T21:45:31.073Z,65.04
2023-04-25T21:47:33.440Z,65.09
2023-04-25T21:49:35.020Z,64.71
2023-04-25T21:51:36.710Z,63.80
2023-04-25T21:53:38.738Z,63.41
2023-04-25T21:55:40.349Z,64.38
2023-04-25T21:57:42.092Z,64.65
2023-04-25T21:59:43.706Z,64.35
2023-04-25T22:01:46.502Z,64.36
2023-04-25T22:03:48.295Z,63.71
2023-04-25T22:05:50.032Z,63.38
2023-04-25T22:07:53.581Z,63.07
2023-04-25T22:09:55.992Z,63.25
2023-04-25T22:11:58.736Z,62.81
2023-04-25T22:14:01.245Z,63.13
2023-04-25T22:16:03.222Z,62.58
2023-04-25T22:18:05.864Z,62.46
2023-04-25T22:20:13.371Z,62.86
2023-04-25T22:22:14.957Z,62.98
2023-04-25T22:24:16.615Z,63.34
2023-04-25T22:26:18.809Z,63.15
2023-04-25T22:28:20.476Z,63.09
2023-04-25T22:30:22.790Z,63.10
2023-04-25T22:32:25.913Z,62.72
2023-04-25T22:34:27.608Z,62.63
2023-04-25T22:36:29.627Z,62.64
2023-04-25T22:38:31.425Z,63.67
2023-04-25T22:40:33.135Z,63.94
2023-04-25T22:42:42.322Z,63.98
2023-04-25T22:44:44.013Z,64.11
2023-04-25T22:46:45.630Z,64.62
2023-04-25T22:48:48.111Z,64.82
2023-04-25T22:50:51.535Z,65.04
2023-04-25T22:52:53.198Z,65.15
2023-04-25T22:54:54.970Z,66.01
2023-04-25T22:56:58.068Z,66.17
2023-04-25T22:58:59.769Z,66.40
2023-04-25T23:01:01.323Z,67.01
2023-04-25T23:03:04.035Z,67.76
2023-04-25T23:05:07.124Z,68.01
2023-04-25T23:07:08.958Z,68.56
2023-04-25T23:09:12.417Z,68.09
2023-04-25T23:11:14.246Z,68.58
2023-04-25T23:13:15.826Z,69.06
2023-04-25T23:15:17.463Z,69.46
2023-04-25T23:17:20.390Z,69.39
2023-04-25T23:19:22.126Z,69.18
2023-04-25T23:21:23.769Z,69.73
2023-04-25T23:23:25.460Z,69.45
2023-04-25T23:25:27.129Z,68.93
2023-04-25T23:27:28.704Z,68.67
2023-04-25T23:29:31.573Z,69.18
2023-04-25T23:31:33.130Z,68.94
2023-04-25T23:33:35.048Z,68.95
2023-04-25T23:35:37.140Z,68.57
2023-04-25T23:37:40.252Z,68.52
2023-04-25T23:39:47.790Z,68.27
2023-04-25T23:41:49.461Z,68.39
2023-04-25T23:43:51.166Z,67.93
2023-04-25T23:45:54.290Z,67.57
2023-04-25T23:47:56.133Z,67.55
2023-04-25T23:49:58.143Z,67.30
2023-04-25T23:51:59.795Z,67.24
2023-04-25T23:54:02.443Z,66.99
2023-04-25T23:56:05.419Z,66.59
2023-04-25T23:58:07.775Z,66.64
